createdAt,value
2022-09-06T00:03:16.724Z,63.86
2022-09-06T00:06:53.890Z,63.33
2022-09-06T00:10:33.189Z,62.94
2022-09-06T00:14:11.487Z,62.62
2022-09-06T00:17:49.384Z,62.31
2022-09-06T00:21:31.259Z,62.24
2022-09-06T00:25:09.889Z,62.16
2022-09-06T00:28:47.133Z,62.09
2022-09-06T00:32:25.081Z,61.96
2022-09-06T00:36:02.653Z,62.01
2022-09-06T00:39:40.278Z,62.02
2022-09-06T00:43:17.560Z,61.96
2022-09-06T00:46:55.890Z,62.08
2022-09-06T00:50:34.470Z,62.46
2022-09-06T00:54:12.644Z,62.91
2022-09-06T00:57:50.523Z,63.54
2022-09-06T01:01:28.805Z,64.03
2022-09-06T01:05:07.127Z,64.07
2022-09-06T01:09:11.670Z,63.85
2022-09-06T01:13:18.784Z,63.70
2022-09-06T01:17:26.982Z,63.76
2022-09-06T01:21:34.821Z,64.16
2022-09-06T01:25:57.697Z,64.29
2022-09-06T01:29:51.733Z,64.60
2022-09-06T01:33:52.612Z,65.00
2022-09-06T01:37:31.094Z,65.24
2022-09-06T01:41:09.288Z,65.54
2022-09-06T01:45:00.116Z,65.71
2022-09-06T01:48:46.497Z,65.85
2022-09-06T01:52:41.882Z,66.17
2022-09-06T01:56:44.021Z,66.04
2022-09-06T02:00:22.666Z,66.37
2022-09-06T02:04:12.658Z,66.43
2022-09-06T02:07:56.040Z,66.65
2022-09-06T02:11:48.302Z,66.90
2022-09-06T02:15:31.754Z,67.65
2022-09-06T02:19:15.426Z,72.03
2022-09-06T02:22:58.189Z,74.28
2022-09-06T02:26:40.630Z,73.67
2022-09-06T02:30:18.087Z,74.95
2022-09-06T02:33:56.325Z,76.70
2022-09-06T02:37:34.348Z,77.81
2022-09-06T02:41:14.542Z,77.66
2022-09-06T02:44:52.527Z,78.92
2022-09-06T02:48:30.391Z,80.43
2022-09-06T02:52:08.310Z,82.58
2022-09-06T02:55:48.888Z,83.95
2022-09-06T02:59:26.756Z,81.69
2022-09-06T03:03:04.835Z,83.30
2022-09-06T03:06:43.146Z,81.56
2022-09-06T03:10:22.041Z,80.91
2022-09-06T03:13:59.970Z,80.13
2022-09-06T03:17:37.665Z,79.77
2022-09-06T03:21:15.290Z,79.51
2022-09-06T03:24:53.840Z,78.97
2022-09-06T03:28:31.233Z,78.33
2022-09-06T03:32:09.119Z,78.01
2022-09-06T03:35:56.520Z,78.05
2022-09-06T03:39:34.468Z,77.82
2022-09-06T03:43:13.316Z,77.27
2022-09-06T03:46:50.413Z,76.43
2022-09-06T03:50:27.546Z,75.84
2022-09-06T03:54:06.608Z,75.40
2022-09-06T03:57:44.734Z,74.96
2022-09-06T04:01:22.833Z,74.51
2022-09-06T04:05:00.094Z,74.11
2022-09-06T04:08:39.927Z,74.01
2022-09-06T04:12:17.921Z,73.62
2022-09-06T04:15:56.192Z,73.49
2022-09-06T04:19:33.548Z,73.21
2022-09-06T04:23:10.806Z,73.03
2022-09-06T04:26:47.829Z,72.68
2022-09-06T04:30:26.154Z,72.55
2022-09-06T04:34:03.265Z,72.20
2022-09-06T04:37:40.759Z,72.00
2022-09-06T04:41:18.323Z,72.06
2022-09-06T04:44:56.388Z,71.71
2022-09-06T04:48:35.209Z,71.62
2022-09-06T04:52:12.762Z,71.43
2022-09-06T04:55:49.621Z,71.27
2022-09-06T04:59:27.331Z,71.18
2022-09-06T05:03:04.947Z,70.91
2022-09-06T05:06:42.860Z,70.85
2022-09-06T05:10:22.470Z,70.69
2022-09-06T05:13:59.870Z,70.56
2022-09-06T05:17:38.048Z,70.26
2022-09-06T05:21:15.695Z,69.92
2022-09-06T05:24:53.190Z,69.77
2022-09-06T05:28:31.026Z,69.41
2022-09-06T05:32:09.395Z,69.33
2022-09-06T05:35:48.685Z,69.06
2022-09-06T05:39:30.526Z,68.81
2022-09-06T05:43:07.428Z,68.48
2022-09-06T05:46:46.159Z,68.40
2022-09-06T05:50:23.378Z,68.23
2022-09-06T05:54:01.601Z,68.07
2022-09-06T05:57:39.789Z,67.66
2022-09-06T06:01:28.914Z,67.10
2022-09-06T06:05:07.121Z,66.32
2022-09-06T06:08:44.460Z,65.50
2022-09-06T06:12:22.714Z,64.85
2022-09-06T06:15:59.923Z,64.31
2022-09-06T06:19:37.085Z,63.47
2022-09-06T06:23:15.747Z,62.56
2022-09-06T06:26:54.527Z,62.16
2022-09-06T06:30:32.329Z,61.63
2022-09-06T06:34:10.319Z,60.98
2022-09-06T06:37:47.591Z,60.76
2022-09-06T06:41:28.666Z,60.14
2022-09-06T06:45:07.598Z,59.36
2022-09-06T06:48:48.641Z,58.37
2022-09-06T06:52:27.654Z,57.46
2022-09-06T06:56:20.849Z,56.55
2022-09-06T06:59:59.061Z,56.06
2022-09-06T07:03:36.714Z,55.71
2022-09-06T07:11:10.804Z,56.17
2022-09-06T07:14:48.108Z,56.36
2022-09-06T07:18:25.359Z,56.42
2022-09-06T07:22:05.351Z,56.55
2022-09-06T07:25:43.176Z,56.71
2022-09-06T07:29:20.620Z,56.95
2022-09-06T07:32:59.713Z,56.79
2022-09-06T07:36:37.338Z,56.57
2022-09-06T07:40:15.528Z,56.62
2022-09-06T07:43:54.502Z,56.73
2022-09-06T07:51:29.414Z,56.63
2022-09-06T07:55:07.678Z,56.44
2022-09-06T07:58:46.491Z,56.10
2022-09-06T08:02:24.917Z,55.72
2022-09-06T08:06:10.745Z,54.79
2022-09-06T08:09:49.029Z,53.89
2022-09-06T08:13:27.940Z,53.07
2022-09-06T08:17:05.819Z,51.88
2022-09-06T08:20:43.959Z,51.33
2022-09-06T08:24:21.870Z,51.70
2022-09-06T08:27:59.522Z,52.55
2022-09-06T08:31:40.655Z,52.96
2022-09-06T08:35:18.424Z,53.52
2022-09-06T08:39:06.075Z,53.89
2022-09-06T08:42:43.170Z,54.56
2022-09-06T08:46:59.117Z,55.22
2022-09-06T08:50:40.848Z,55.23
2022-09-06T08:54:42.577Z,55.16
2022-09-06T08:58:41.278Z,55.59
2022-09-06T09:02:21.969Z,55.97
2022-09-06T09:05:59.863Z,56.45
2022-09-06T09:09:37.377Z,56.81
2022-09-06T09:13:32.136Z,57.41
2022-09-06T09:17:21.593Z,58.00
2022-09-06T09:20:59.706Z,58.54
2022-09-06T09:24:37.968Z,59.09
2022-09-06T09:28:24.962Z,59.44
2022-09-06T09:32:02.610Z,59.91
2022-09-06T09:35:42.223Z,60.25
2022-09-06T09:39:20.556Z,60.22
2022-09-06T09:43:22.252Z,60.20
2022-09-06T09:46:59.902Z,60.39
2022-09-06T09:50:38.035Z,60.12
2022-09-06T09:54:31.296Z,59.80
2022-09-06T09:58:32.026Z,59.60
2022-09-06T10:02:39.567Z,59.20
2022-09-06T10:10:30.405Z,58.76
2022-09-06T10:14:12.636Z,58.54
2022-09-06T10:17:52.324Z,58.04
2022-09-06T10:21:29.978Z,57.74
2022-09-06T10:25:26.784Z,57.36
2022-09-06T10:29:06.563Z,56.91
2022-09-06T10:33:23.324Z,56.69
2022-09-06T10:37:22.397Z,56.37
2022-09-06T10:41:25.291Z,55.81
2022-09-06T10:45:16.730Z,55.36
2022-09-06T10:48:55.532Z,54.17
2022-09-06T10:52:39.330Z,53.84
2022-09-06T10:56:49.695Z,53.14
2022-09-06T11:00:27.133Z,53.21
2022-09-06T11:04:13.011Z,53.55
2022-09-06T11:11:53.212Z,53.94
2022-09-06T11:15:43.846Z,54.05
2022-09-06T11:19:29.292Z,53.70
2022-09-06T11:23:37.110Z,53.07
2022-09-06T11:27:30.102Z,52.72
2022-09-06T11:35:30.282Z,51.99
2022-09-06T11:39:10.400Z,51.53
2022-09-06T11:42:50.952Z,51.51
2022-09-06T11:46:40.726Z,51.24
2022-09-06T11:50:22.075Z,51.20
2022-09-06T11:54:14.483Z,51.00
2022-09-06T11:57:59.763Z,50.77
2022-09-06T12:01:39.123Z,50.18
2022-09-06T12:05:22.934Z,49.64
2022-09-06T12:09:01.393Z,49.31
2022-09-06T12:12:48.497Z,48.81
2022-09-06T12:17:01.422Z,48.02
2022-09-06T12:20:48.840Z,48.11
2022-09-06T12:24:35.644Z,47.76
2022-09-06T12:28:25.967Z,47.50
2022-09-06T12:32:04.612Z,47.18
2022-09-06T12:35:57.623Z,46.62
2022-09-06T12:39:35.721Z,45.90
2022-09-06T12:43:17.264Z,44.53
2022-09-06T12:47:02.659Z,44.84
2022-09-06T12:50:40.933Z,44.46
2022-09-06T12:54:27.302Z,44.54
2022-09-06T12:58:07.722Z,44.54
2022-09-06T13:01:51.569Z,44.89
2022-09-06T13:05:29.620Z,44.45
2022-09-06T13:09:16.422Z,44.22
2022-09-06T13:12:57.446Z,43.52
2022-09-06T13:16:42.086Z,43.92
2022-09-06T13:20:38.916Z,43.01
2022-09-06T13:23:56.910Z,43.31
2022-09-06T13:27:36.567Z,42.03
2022-09-06T13:31:21.749Z,43.04
2022-09-06T13:35:00.499Z,43.54
2022-09-06T13:38:38.718Z,43.88
2022-09-06T13:42:28.116Z,43.60
2022-09-06T13:46:09.694Z,43.70
2022-09-06T13:49:47.850Z,41.51
2022-09-06T13:53:25.864Z,41.59
2022-09-06T13:57:04.145Z,41.47
2022-09-06T14:00:42.086Z,40.06
2022-09-06T14:04:21.279Z,38.35
2022-09-06T14:07:59.241Z,33.82
2022-09-06T14:11:37.309Z,32.71
2022-09-06T14:15:15.111Z,31.20
2022-09-06T14:18:52.939Z,30.91
2022-09-06T14:22:31.534Z,29.86
2022-09-06T14:26:09.943Z,29.18
2022-09-06T14:29:47.273Z,28.36
2022-09-06T14:33:24.275Z,28.33
2022-09-06T14:37:02.197Z,26.70
2022-09-06T14:40:40.405Z,24.76
2022-09-06T14:44:22.022Z,25.18
2022-09-06T14:47:55.703Z,26.62
2022-09-06T14:51:36.212Z,26.98
2022-09-06T14:55:15.038Z,28.57
2022-09-06T14:58:52.984Z,29.59
2022-09-06T15:02:32.399Z,30.59
2022-09-06T15:06:11.498Z,30.94
2022-09-06T15:09:49.765Z,31.83
2022-09-06T15:13:29.008Z,32.74
2022-09-06T15:17:06.372Z,33.63
2022-09-06T15:20:43.609Z,34.21
2022-09-06T15:24:22.431Z,34.62
2022-09-06T15:27:59.711Z,34.66
2022-09-06T15:31:38.076Z,33.97
2022-09-06T15:35:16.202Z,33.04
2022-09-06T15:38:54.207Z,34.01
2022-09-06T15:42:32.491Z,34.97
2022-09-06T15:46:10.870Z,34.85
2022-09-06T15:49:49.680Z,34.76
2022-09-06T15:53:26.892Z,35.12
2022-09-06T15:57:05.290Z,35.03
2022-09-06T16:00:42.581Z,35.71
2022-09-06T16:04:21.792Z,36.06
2022-09-06T16:07:59.359Z,36.23
2022-09-06T16:11:37.440Z,36.01
2022-09-06T16:15:15.072Z,36.74
2022-09-06T16:18:52.354Z,37.81
2022-09-06T16:22:32.078Z,38.26
2022-09-06T16:26:10.309Z,39.19
2022-09-06T16:29:47.386Z,39.29
2022-09-06T16:33:24.492Z,40.28
2022-09-06T16:37:01.705Z,41.08
2022-09-06T16:40:44.793Z,42.12
2022-09-06T16:44:23.112Z,42.87
2022-09-06T16:48:01.208Z,43.24
2022-09-06T16:51:40.921Z,43.60
2022-09-06T16:55:19.247Z,43.96
2022-09-06T16:58:59.017Z,44.44
2022-09-06T17:02:38.160Z,45.11
2022-09-06T17:06:16.679Z,46.63
2022-09-06T17:09:54.845Z,47.35
2022-09-06T17:13:33.426Z,47.76
2022-09-06T17:17:11.489Z,47.88
2022-09-06T17:20:56.879Z,47.79
2022-09-06T17:24:34.706Z,49.93
2022-09-06T17:28:12.261Z,50.16
2022-09-06T17:31:49.823Z,52.24
2022-09-06T17:35:27.279Z,51.64
2022-09-06T17:39:13.928Z,51.52
2022-09-06T17:42:51.821Z,50.54
2022-09-06T17:46:30.207Z,50.36
2022-09-06T17:50:08.776Z,49.65
2022-09-06T17:53:47.112Z,49.99
2022-09-06T17:57:24.393Z,51.51
2022-09-06T18:01:07.275Z,52.20
2022-09-06T18:04:45.086Z,52.28
2022-09-06T18:08:23.322Z,52.28
2022-09-06T18:12:01.384Z,53.64
2022-09-06T18:15:40.176Z,53.86
2022-09-06T18:19:19.238Z,54.74
2022-09-06T18:22:57.770Z,54.84
2022-09-06T18:26:36.048Z,55.65
2022-09-06T18:30:14.924Z,55.79
2022-09-06T18:33:54.237Z,55.82
2022-09-06T18:37:35.589Z,56.07
2022-09-06T18:41:15.651Z,55.42
2022-09-06T18:44:53.775Z,55.77
2022-09-06T18:48:33.477Z,56.23
2022-09-06T18:52:10.835Z,55.96
2022-09-06T18:55:51.831Z,57.05
2022-09-06T18:59:29.753Z,56.42
2022-09-06T19:03:08.581Z,57.78
2022-09-06T19:06:45.518Z,57.46
2022-09-06T19:10:23.574Z,57.48
2022-09-06T19:14:01.862Z,57.46
2022-09-06T19:17:42.579Z,57.83
2022-09-06T19:21:18.577Z,57.66
2022-09-06T19:24:56.087Z,58.16
2022-09-06T19:28:35.874Z,58.58
2022-09-06T19:32:15.923Z,58.88
2022-09-06T19:36:10.587Z,59.84
2022-09-06T19:39:51.889Z,61.33
2022-09-06T19:43:29.292Z,62.71
2022-09-06T19:47:07.047Z,61.87
2022-09-06T19:50:44.323Z,61.88
2022-09-06T19:54:23.249Z,62.05
2022-09-06T19:58:06.316Z,63.83
2022-09-06T20:01:46.045Z,64.18
2022-09-06T20:05:23.643Z,63.90
2022-09-06T20:09:08.136Z,65.20
2022-09-06T20:12:37.716Z,65.12
2022-09-06T20:16:20.606Z,65.21
2022-09-06T20:19:59.188Z,64.71
2022-09-06T20:23:37.329Z,64.56
2022-09-06T20:27:14.990Z,64.38
2022-09-06T20:30:54.101Z,64.43
2022-09-06T20:34:32.367Z,64.22
2022-09-06T20:38:12.342Z,64.14
2022-09-06T20:41:49.870Z,64.08
2022-09-06T20:45:27.120Z,64.47
2022-09-06T20:49:05.356Z,64.43
2022-09-06T20:52:43.297Z,64.38
2022-09-06T20:56:23.567Z,64.45
2022-09-06T21:00:01.232Z,64.66
2022-09-06T21:03:41.070Z,64.64
2022-09-06T21:07:18.951Z,64.64
2022-09-06T21:11:04.279Z,64.55
2022-09-06T21:14:41.878Z,64.32
2022-09-06T21:18:20.607Z,64.09
2022-09-06T21:21:57.651Z,63.78
2022-09-06T21:25:34.824Z,63.23
2022-09-06T21:29:12.553Z,62.59
2022-09-06T21:32:53.359Z,61.89
2022-09-06T21:36:35.145Z,61.49
2022-09-06T21:40:13.316Z,61.18
2022-09-06T21:43:55.159Z,60.88
2022-09-06T21:47:33.918Z,60.44
2022-09-06T21:51:16.084Z,60.02
2022-09-06T21:54:53.904Z,59.36
2022-09-06T21:58:31.355Z,59.02
2022-09-06T22:02:08.493Z,58.74
2022-09-06T22:05:45.754Z,58.17
2022-09-06T22:09:24.418Z,57.96
2022-09-06T22:13:01.910Z,57.63
2022-09-06T22:16:41.531Z,57.18
2022-09-06T22:20:20.353Z,56.73
2022-09-06T22:24:03.849Z,56.52
2022-09-06T22:27:42.265Z,56.23
2022-09-06T22:31:22.495Z,55.72
2022-09-06T22:35:00.114Z,55.06
2022-09-06T22:38:38.222Z,54.86
2022-09-06T22:42:17.224Z,54.69
2022-09-06T22:46:03.444Z,54.57
2022-09-06T22:49:40.733Z,54.61
2022-09-06T22:53:19.273Z,54.13
2022-09-06T22:56:57.163Z,53.91
2022-09-06T23:00:36.584Z,53.74
2022-09-06T23:04:14.979Z,53.72
2022-09-06T23:07:52.491Z,53.88
2022-09-06T23:11:32.577Z,54.00
2022-09-06T23:15:10.995Z,54.17
2022-09-06T23:18:48.812Z,53.89
2022-09-06T23:22:26.258Z,53.88
2022-09-06T23:26:16.467Z,53.77
2022-09-06T23:29:54.607Z,53.91
2022-09-06T23:33:32.669Z,53.92
2022-09-06T23:37:09.708Z,53.99
2022-09-06T23:40:49.322Z,54.17
2022-09-06T23:44:26.804Z,54.29
2022-09-06T23:48:05.162Z,54.18
2022-09-06T23:51:42.724Z,54.08
2022-09-06T23:55:20.256Z,53.93
2022-09-06T23:58:58.675Z,53.65
